Time;durP1;ratioP1;P1;durP2;ratioP2;P2;SDS_P1;SDS_P2;PMS_P1;PMS_P2;Temp;Humidity;BMP_temperature;BMP_pressure;BME280_temperature;BME280_humidity;BME280_pressure;Samples;Min_cycle;Max_cycle;Signal;HPM_P1;HPM_P2
2022/03/13 00:00:53;;;;;;;36.35;17.60;;;;;;;9.27;72.42;100585.47;8350510;28;20124;-63
2022/03/13 00:04:56;;;;;;;36.03;18.30;;;;;;;9.29;72.13;100586.19;8360509;28;20448;-63
2022/03/13 00:08:58;;;;;;;35.85;17.58;;;;;;;9.33;71.43;100580.41;8336853;28;20486;-63
2022/03/13 00:13:00;;;;;;;35.40;18.40;;;;;;;9.31;71.44;100573.44;8359977;28;20041;-63
2022/03/13 00:17:01;;;;;;;33.78;18.45;;;;;;;9.07;73.43;100580.91;8351535;28;20128;-63
2022/03/13 00:21:03;;;;;;;38.08;19.08;;;;;;;8.77;75.36;100575.38;8357277;28;20041;-63
2022/03/13 00:25:08;;;;;;;36.78;19.75;;;;;;;8.50;76.11;100569.56;8357998;28;20086;-63
2022/03/13 00:29:09;;;;;;;34.15;19.13;;;;;;;8.45;75.21;100569.13;8348435;28;20071;-63
2022/03/13 00:33:10;;;;;;;39.20;19.08;;;;;;;8.36;75.10;100556.41;8354836;28;20079;-63
2022/03/13 00:37:11;;;;;;;38.25;19.58;;;;;;;8.29;75.24;100547.13;8335211;28;20461;-63
2022/03/13 00:41:11;;;;;;;35.58;18.65;;;;;;;8.21;75.41;100546.84;8348666;28;20046;-63
2022/03/13 00:45:13;;;;;;;34.58;18.80;;;;;;;7.99;76.86;100545.88;8351815;28;20064;-63
2022/03/13 00:49:14;;;;;;;41.40;19.83;;;;;;;7.95;76.96;100549.81;8351811;28;20051;-63
2022/03/13 00:53:14;;;;;;;33.63;19.58;;;;;;;7.90;77.16;100546.63;8351516;28;20045;-63
2022/03/13 00:57:15;;;;;;;39.47;19.40;;;;;;;8.02;75.54;100540.25;8338030;28;20037;-63
2022/03/13 01:01:17;;;;;;;37.80;19.55;;;;;;;8.02;75.35;100539.41;8345986;28;20048;-63
2022/03/13 01:05:23;;;;;;;33.47;17.95;;;;;;;8.00;75.13;100531.44;8348655;28;20124;-63
2022/03/13 01:09:23;;;;;;;36.65;18.15;;;;;;;8.10;74.31;100520.78;8345891;28;20471;-63
2022/03/13 01:13:24;;;;;;;34.22;18.15;;;;;;;7.98;74.97;100528.03;8342669;28;20052;-63
2022/03/13 01:17:25;;;;;;;37.70;18.58;;;;;;;8.00;74.49;100526.06;8350680;28;20037;-63
2022/03/13 01:21:27;;;;;;;35.28;18.88;;;;;;;7.94;74.57;100521.16;8344143;28;20047;-63
2022/03/13 01:25:28;;;;;;;37.25;18.13;;;;;;;7.90;74.52;100518.88;8356726;28;20303;-63
2022/03/13 01:29:31;;;;;;;32.42;16.27;;;;;;;7.88;74.19;100512.75;8345070;28;20036;-63
2022/03/13 01:33:31;;;;;;;33.22;16.70;;;;;;;7.80;74.32;100508.00;8344495;28;20056;-63
2022/03/13 01:37:35;;;;;;;32.78;16.77;;;;;;;7.79;74.34;100506.28;8346610;28;20040;-64
2022/03/13 01:41:36;;;;;;;34.57;17.73;;;;;;;7.72;74.16;100499.66;8342254;28;20299;-63
2022/03/13 01:45:37;;;;;;;31.85;15.98;;;;;;;7.71;73.79;100497.97;8349014;28;20264;-63
2022/03/13 01:49:38;;;;;;;31.52;17.00;;;;;;;7.76;73.16;100500.28;8359482;28;20056;-63
2022/03/13 01:53:38;;;;;;;31.33;16.00;;;;;;;7.66;73.44;100497.47;8344946;28;20034;-63
2022/03/13 01:57:39;;;;;;;30.52;16.05;;;;;;;7.71;72.94;100491.72;8337708;28;20498;-64
2022/03/13 02:01:40;;;;;;;32.47;16.00;;;;;;;7.72;73.13;100496.97;8363064;28;20029;-64
2022/03/13 02:05:40;;;;;;;30.65;16.30;;;;;;;7.67;73.36;100491.13;8348991;28;20088;-63
2022/03/13 02:09:40;;;;;;;30.77;16.30;;;;;;;7.69;73.67;100485.63;8325486;28;20037;-63
2022/03/13 02:13:41;;;;;;;33.42;16.80;;;;;;;7.70;73.32;100479.25;8335771;28;20116;-63
2022/03/13 02:17:41;;;;;;;31.17;16.23;;;;;;;7.74;73.27;100465.44;8348779;28;20048;-63
2022/03/13 02:21:44;;;;;;;31.85;16.50;;;;;;;7.77;72.81;100464.31;8322875;28;20045;-64
2022/03/13 02:25:48;;;;;;;27.13;15.48;;;;;;;7.75;72.44;100450.16;8357594;28;20524;-64
2022/03/13 02:29:49;;;;;;;31.60;15.75;;;;;;;7.74;72.53;100457.34;8372765;28;20025;-63
2022/03/13 02:33:52;;;;;;;31.05;15.02;;;;;;;7.78;71.98;100455.28;8350988;28;20041;-64
2022/03/13 02:37:53;;;;;;;27.48;15.25;;;;;;;7.71;72.21;100460.28;8355157;28;20094;-64
2022/03/13 02:41:53;;;;;;;32.45;16.65;;;;;;;7.70;71.86;100469.34;8354849;28;20037;-64
2022/03/13 02:45:53;;;;;;;26.80;15.50;;;;;;;7.52;72.83;100453.81;8362333;28;20037;-64
2022/03/13 02:49:54;;;;;;;29.15;14.68;;;;;;;7.39;73.05;100458.47;8352764;28;20049;-63
2022/03/13 02:53:55;;;;;;;31.75;16.50;;;;;;;7.23;73.60;100458.81;8348262;28;20037;-63
2022/03/13 02:57:55;;;;;;;29.70;16.67;;;;;;;7.16;73.91;100456.72;8374273;28;20045;-63
2022/03/13 03:02:00;;;;;;;30.55;16.52;;;;;;;7.01;74.26;100453.41;8349679;28;20056;-63
2022/03/13 03:06:00;;;;;;;;;;;;;;;7.00;74.23;100445.47;8353736;28;20038;-64
2022/03/13 03:10:02;;;;;;;35.90;17.17;;;;;;;6.93;74.60;100442.44;8324420;28;19913;-63
2022/03/13 03:14:03;;;;;;;29.98;16.60;;;;;;;6.85;75.18;100436.78;8350515;28;20033;-64
2022/03/13 03:18:06;;;;;;;31.58;15.30;;;;;;;6.86;75.14;100449.25;8355372;28;20053;-63
2022/03/13 03:22:07;;;;;;;33.72;16.90;;;;;;;6.74;75.99;100447.50;8349600;28;20073;-63
2022/03/13 03:26:07;;;;;;;29.40;15.82;;;;;;;6.70;75.40;100442.47;8360303;28;20398;-63
2022/03/13 03:30:09;;;;;;;37.03;16.40;;;;;;;6.65;74.77;100445.50;8343390;28;20037;-63
2022/03/13 03:34:12;;;;;;;32.03;15.90;;;;;;;6.51;75.43;100437.69;8353999;28;20049;-63
2022/03/13 03:38:13;;;;;;;28.55;15.25;;;;;;;6.60;74.49;100430.72;8347325;28;20046;-63
2022/03/13 03:42:14;;;;;;;30.63;15.38;;;;;;;6.78;73.26;100426.63;8362603;28;20095;-63
2022/03/13 03:46:16;;;;;;;26.30;14.80;;;;;;;6.87;73.10;100421.41;8342317;28;20075;-64
2022/03/13 03:50:18;;;;;;;28.23;14.25;;;;;;;7.19;70.50;100417.03;8364900;28;20033;-63
2022/03/13 03:54:19;;;;;;;23.88;13.73;;;;;;;7.45;68.99;100409.56;8363402;28;20425;-63
2022/03/13 03:58:21;;;;;;;26.35;13.77;;;;;;;7.66;66.76;100406.00;8358544;28;20049;-64
2022/03/13 04:02:21;;;;;;;24.20;13.45;;;;;;;7.79;66.02;100430.94;8328104;28;20037;-64
2022/03/13 04:06:21;;;;;;;25.25;13.45;;;;;;;7.80;65.92;100421.88;8358210;28;20038;-64
2022/03/13 04:10:22;;;;;;;24.02;13.23;;;;;;;7.78;66.18;100417.59;8347668;28;20405;-63
2022/03/13 04:14:22;;;;;;;27.38;14.38;;;;;;;7.78;65.73;100417.59;8343362;28;20037;-63
2022/03/13 04:18:23;;;;;;;25.92;13.32;;;;;;;7.73;66.38;100415.28;8343350;28;20033;-63
2022/03/13 04:22:23;;;;;;;24.83;12.70;;;;;;;7.68;66.61;100406.72;8356948;28;20040;-63
2022/03/13 04:26:24;;;;;;;24.33;13.48;;;;;;;7.63;68.08;100402.72;8360284;28;20091;-64
2022/03/13 04:30:30;;;;;;;20.83;12.07;;;;;;;7.67;67.31;100421.16;8354527;28;20037;-63
2022/03/13 04:34:30;;;;;;;24.48;13.10;;;;;;;7.78;66.36;100412.22;8337291;28;20033;-64
2022/03/13 04:38:31;;;;;;;21.67;12.65;;;;;;;7.85;65.54;100419.69;8358416;28;20455;-63
2022/03/13 04:42:31;;;;;;;21.35;12.48;;;;;;;7.96;64.07;100416.06;8359236;28;20053;-64
2022/03/13 04:46:32;;;;;;;22.58;11.57;;;;;;;8.13;62.24;100410.16;8352334;28;20065;-63
2022/03/13 04:50:32;;;;;;;25.42;12.55;;;;;;;8.24;61.81;100414.69;8343784;28;20037;-63
2022/03/13 04:54:33;;;;;;;21.23;12.68;;;;;;;8.26;62.04;100412.72;8359115;28;20498;-64
2022/03/13 04:58:34;;;;;;;23.38;12.23;;;;;;;8.29;61.36;100402.53;8326351;28;20057;-63
2022/03/13 05:02:34;;;;;;;23.05;11.65;;;;;;;8.24;61.92;100398.53;8355883;28;20509;-63
2022/03/13 05:06:36;;;;;;;20.35;11.95;;;;;;;8.21;61.92;100385.28;8351079;28;20484;-63
2022/03/13 05:10:37;;;;;;;24.30;13.75;;;;;;;8.22;61.59;100385.19;8362388;28;20037;-63
2022/03/13 05:14:38;;;;;;;23.05;12.35;;;;;;;8.21;61.39;100404.13;8351226;28;20057;-64
2022/03/13 05:18:38;;;;;;;23.42;12.70;;;;;;;8.23;60.77;100408.44;8355169;28;20049;-63
2022/03/13 05:22:38;;;;;;;37.60;12.85;;;;;;;8.21;60.17;100410.38;8348327;28;20047;-63
2022/03/13 05:26:39;;;;;;;21.05;11.35;;;;;;;8.20;60.43;100415.91;8361429;28;20064;-64
2022/03/13 05:30:41;;;;;;;21.48;12.10;;;;;;;8.08;60.79;100421.31;8365546;28;20120;-63
2022/03/13 05:34:43;;;;;;;24.98;12.30;;;;;;;8.05;61.01;100432.31;8356416;28;20060;-64
2022/03/13 05:38:43;;;;;;;20.65;11.57;;;;;;;7.98;61.39;100435.66;8343587;28;20033;-63
2022/03/13 05:42:46;;;;;;;22.60;12.10;;;;;;;7.98;60.18;100436.53;8362408;28;20033;-63
2022/03/13 05:46:48;;;;;;;24.85;12.27;;;;;;;7.96;59.93;100435.78;8355994;28;20566;-64
2022/03/13 05:50:48;;;;;;;21.77;12.23;;;;;;;7.98;59.78;100425.75;8358064;28;20375;-63
2022/03/13 05:54:49;;;;;;;22.30;11.52;;;;;;;7.99;59.60;100438.22;8339344;28;20126;-63
2022/03/13 05:58:49;;;;;;;22.10;12.00;;;;;;;8.04;59.99;100433.31;8357332;28;20041;-63
2022/03/13 06:02:49;;;;;;;30.85;15.65;;;;;;;8.02;59.90;100426.34;8361201;28;20189;-63
2022/03/13 06:06:50;;;;;;;26.73;12.15;;;;;;;7.99;60.23;100435.53;8349440;28;20099;-64
2022/03/13 06:10:51;;;;;;;20.50;11.95;;;;;;;7.98;60.87;100444.59;8344343;28;20136;-63
2022/03/13 06:14:51;;;;;;;19.77;11.38;;;;;;;8.00;59.71;100437.22;8351394;28;20447;-63
2022/03/13 06:18:52;;;;;;;25.17;12.50;;;;;;;7.95;60.11;100436.78;8372062;28;20037;-63
2022/03/13 06:22:53;;;;;;;23.75;12.55;;;;;;;7.99;59.94;100438.22;8361912;28;20041;-63
2022/03/13 06:26:53;;;;;;;21.45;11.40;;;;;;;8.01;60.10;100435.41;8356661;28;20037;-63
2022/03/13 06:30:55;;;;;;;22.77;12.80;;;;;;;8.02;59.57;100435.28;8359621;28;20041;-63
2022/03/13 06:34:56;;;;;;;23.23;12.25;;;;;;;8.03;60.26;100428.06;8352016;28;20045;-63
2022/03/13 06:38:56;;;;;;;20.38;12.10;;;;;;;8.07;59.33;100435.75;8363326;28;20041;-63
2022/03/13 06:42:58;;;;;;;23.70;12.00;;;;;;;8.11;59.66;100430.13;8359260;28;20144;-63
2022/03/13 06:46:58;;;;;;;26.05;11.77;;;;;;;8.14;60.06;100436.09;8358130;28;20045;-64
2022/03/13 06:50:59;;;;;;;25.08;13.32;;;;;;;8.17;59.92;100435.84;8356102;28;20105;-64
2022/03/13 06:54:59;;;;;;;26.25;12.13;;;;;;;8.23;59.21;100438.06;8355116;28;20099;-63
2022/03/13 06:59:03;;;;;;;19.92;11.27;;;;;;;8.20;59.19;100434.75;8366173;28;20034;-63
2022/03/13 07:03:03;;;;;;;18.60;11.40;;;;;;;8.22;58.79;100438.16;8362246;28;20065;-63
2022/03/13 07:07:04;;;;;;;22.63;12.07;;;;;;;8.23;58.60;100443.44;8359463;28;20060;-63
2022/03/13 07:11:04;;;;;;;21.80;11.90;;;;;;;8.36;58.80;100456.75;8351393;28;20049;-63
2022/03/13 07:15:08;;;;;;;21.77;11.85;;;;;;;8.38;58.45;100444.84;8345921;28;20151;-63
2022/03/13 07:19:09;;;;;;;25.50;13.30;;;;;;;8.37;58.75;100443.16;8361298;28;20041;-63
2022/03/13 07:23:09;;;;;;;25.48;12.05;;;;;;;8.43;58.65;100442.63;8358748;28;20045;-63
2022/03/13 07:27:10;;;;;;;23.77;13.18;;;;;;;8.48;58.08;100445.78;8352414;28;20425;-64
2022/03/13 07:31:10;;;;;;;23.75;11.68;;;;;;;8.47;58.14;100448.59;8357473;28;20044;-63
2022/03/13 07:35:11;;;;;;;22.08;10.77;;;;;;;8.43;58.36;100445.34;8363583;28;20068;-63
2022/03/13 07:39:13;;;;;;;22.50;12.63;;;;;;;8.48;57.95;100451.16;8353216;28;20050;-63
2022/03/13 07:43:14;;;;;;;23.27;12.57;;;;;;;8.61;57.56;100453.69;8323420;28;20041;-64
2022/03/13 07:47:14;;;;;;;19.27;11.30;;;;;;;8.69;57.95;100453.91;8345130;28;20048;-64
2022/03/13 07:51:17;;;;;;;25.15;12.13;;;;;;;8.79;57.37;100444.06;8340931;28;20094;-64
2022/03/13 07:55:18;;;;;;;22.90;11.95;;;;;;;9.07;56.91;100443.38;8338164;28;20060;-64
2022/03/13 07:59:18;;;;;;;24.40;12.20;;;;;;;9.20;56.33;100449.41;8364292;28;20398;-64
2022/03/13 08:03:19;;;;;;;21.00;11.88;;;;;;;9.36;56.05;100447.06;8326285;28;20049;-64
2022/03/13 08:07:20;;;;;;;24.98;12.65;;;;;;;9.42;56.10;100438.44;8330940;28;20342;-63
2022/03/13 08:11:20;;;;;;;20.60;11.07;;;;;;;9.65;56.28;100450.78;8353632;28;20045;-64
2022/03/13 08:15:21;;;;;;;21.77;11.63;;;;;;;9.92;55.46;100443.72;8365528;28;20041;-63
2022/03/13 08:19:21;;;;;;;20.52;11.10;;;;;;;10.26;54.30;100438.88;8345722;28;20044;-64
2022/03/13 08:23:22;;;;;;;20.25;11.38;;;;;;;10.54;54.61;100446.13;8335107;28;20091;-64
2022/03/13 08:27:23;;;;;;;23.23;11.27;;;;;;;10.63;52.76;100434.47;8329756;28;20091;-64
2022/03/13 08:31:23;;;;;;;24.50;13.50;;;;;;;10.55;52.62;100447.84;8316690;28;20050;-64
2022/03/13 08:35:24;;;;;;;28.70;15.15;;;;;;;10.62;52.16;100443.59;8322210;28;20037;-64
2022/03/13 08:39:25;;;;;;;27.08;11.63;;;;;;;10.55;52.08;100442.44;8323950;28;20116;-64
2022/03/13 08:43:25;;;;;;;21.58;13.18;;;;;;;10.79;52.42;100442.00;8325252;28;20045;-64
2022/03/13 08:47:27;;;;;;;19.00;11.35;;;;;;;10.97;51.73;100443.81;8334250;28;20041;-64
2022/03/13 08:51:27;;;;;;;21.92;12.52;;;;;;;11.11;52.04;100435.28;8330784;28;20045;-64
2022/03/13 08:55:28;;;;;;;22.10;11.82;;;;;;;11.20;51.46;100434.38;8325125;28;20037;-64
2022/03/13 08:59:30;;;;;;;21.15;11.45;;;;;;;11.38;51.38;100429.91;8320321;28;20048;-64
2022/03/13 09:03:31;;;;;;;19.95;12.02;;;;;;;11.43;51.06;100424.91;8319638;28;20124;-64
2022/03/13 09:07:32;;;;;;;19.70;11.82;;;;;;;11.48;50.84;100422.63;8297139;28;20038;-64
2022/03/13 09:11:34;;;;;;;23.67;11.98;;;;;;;11.34;50.41;100420.38;8320222;28;20060;-64
2022/03/13 09:15:34;;;;;;;21.83;11.98;;;;;;;11.36;50.73;100418.38;8319966;28;20266;-64
2022/03/13 09:19:35;;;;;;;23.98;12.95;;;;;;;11.57;50.96;100416.31;8324312;28;20270;-64
2022/03/13 09:23:36;;;;;;;28.48;11.93;;;;;;;12.26;50.05;100429.34;8317555;28;20562;-64
2022/03/13 09:27:37;;;;;;;18.90;12.02;;;;;;;12.91;49.17;100415.34;8324035;28;20048;-64
2022/03/13 09:31:38;;;;;;;20.48;11.75;;;;;;;14.50;46.56;100419.03;8330403;28;20037;-64
2022/03/13 09:35:39;;;;;;;23.63;11.73;;;;;;;15.62;43.87;100408.91;8317883;28;20064;-65
2022/03/13 09:39:40;;;;;;;19.20;11.93;;;;;;;16.28;43.14;100404.84;8324592;28;20040;-64
2022/03/13 09:43:41;;;;;;;17.75;11.02;;;;;;;16.23;42.00;100412.72;8315856;28;20041;-64
2022/03/13 09:47:42;;;;;;;20.38;11.13;;;;;;;16.75;42.10;100400.09;8311186;28;20425;-64
2022/03/13 09:51:43;;;;;;;25.58;12.23;;;;;;;16.87;41.37;100406.84;8327297;28;20037;-64
2022/03/13 09:55:43;;;;;;;21.52;12.07;;;;;;;17.46;40.89;100404.06;8330059;28;20524;-64
2022/03/13 09:59:46;;;;;;;19.63;11.25;;;;;;;17.59;41.40;100397.94;8328391;28;20041;-65
2022/03/13 10:03:46;;;;;;;19.70;11.50;;;;;;;17.79;41.24;100390.88;8324686;28;20041;-65
2022/03/13 10:08:03;;;;;;;22.95;11.32;;;;;;;18.34;41.39;100382.06;8311320;28;20041;-64
2022/03/13 10:12:12;;;;;;;20.42;12.40;;;;;;;18.38;41.40;100384.25;8333528;28;20691;-64
2022/03/13 10:20:28;;;;;;;22.80;12.20;;;;;;;18.52;41.81;100368.81;8320136;27;20404;-64
2022/03/13 10:24:38;;;;;;;22.27;12.73;;;;;;;18.90;42.40;100379.28;8314415;28;20042;-64
2022/03/13 10:28:40;;;;;;;19.70;12.43;;;;;;;18.75;42.16;100364.81;8313333;28;20113;-63
2022/03/13 10:32:40;;;;;;;22.83;13.82;;;;;;;19.05;42.24;100355.41;8315965;28;20050;-63
2022/03/13 10:36:44;;;;;;;20.27;11.48;;;;;;;19.37;42.43;100352.06;8317458;28;20172;-63
2022/03/13 10:40:50;;;;;;;22.45;12.23;;;;;;;19.45;42.03;100349.16;8298413;28;20041;-63
2022/03/13 10:44:52;;;;;;;20.35;11.70;;;;;;;18.78;42.90;100353.47;8307740;28;20073;-63
2022/03/13 10:48:54;;;;;;;21.55;12.43;;;;;;;19.62;42.22;100337.88;8297656;28;20037;-63
2022/03/13 10:52:55;;;;;;;27.52;14.80;;;;;;;20.25;41.86;100332.88;8305080;28;20121;-63
2022/03/13 10:57:11;;;;;;;25.52;12.70;;;;;;;20.09;40.90;100321.38;8307301;28;20042;-63
2022/03/13 11:01:14;;;;;;;21.83;12.40;;;;;;;20.43;41.02;100315.81;8307355;28;20132;-62
2022/03/13 11:05:14;;;;;;;23.02;12.95;;;;;;;20.45;41.80;100322.78;8308943;28;20171;-64
2022/03/13 11:09:15;;;;;;;18.70;11.43;;;;;;;21.22;40.43;100320.25;8295098;28;20509;-63
2022/03/13 11:13:17;;;;;;;19.23;12.25;;;;;;;20.96;41.51;100315.66;8301244;28;20045;-63
2022/03/13 11:17:20;;;;;;;20.85;12.35;;;;;;;21.57;40.03;100320.81;8301896;28;20038;-63
2022/03/13 11:21:22;;;;;;;21.35;13.93;;;;;;;20.77;40.82;100310.13;8302924;28;20051;-63
2022/03/13 11:25:23;;;;;;;18.00;12.13;;;;;;;20.91;40.87;100303.56;8314802;28;20528;-64
2022/03/13 11:29:45;;;;;;;18.67;11.95;;;;;;;21.26;40.49;100300.38;8305190;28;20339;-64
2022/03/13 11:33:46;;;;;;;27.30;13.45;;;;;;;21.08;40.46;100304.84;8282840;28;20050;-64
2022/03/13 11:37:50;;;;;;;24.88;13.70;;;;;;;21.38;39.24;100299.72;8280365;28;20627;-64
2022/03/13 11:41:51;;;;;;;21.38;13.35;;;;;;;21.38;39.48;100291.47;8285019;28;20077;-64
2022/03/13 11:45:55;;;;;;;26.83;12.30;;;;;;;21.48;39.79;100281.72;8313419;28;20041;-63
2022/03/13 11:49:55;;;;;;;20.70;13.48;;;;;;;20.97;39.78;100286.25;8354237;28;20041;-64
2022/03/13 11:53:58;;;;;;;23.85;14.40;;;;;;;21.44;40.37;100279.59;8360144;28;20045;-63
2022/03/13 11:58:01;;;;;;;20.25;13.32;;;;;;;21.33;39.44;100272.88;8341847;28;20073;-64
2022/03/13 12:02:01;;;;;;;25.00;14.23;;;;;;;22.98;39.57;100278.06;8349770;28;20049;-64
2022/03/13 12:06:03;;;;;;;22.08;13.20;;;;;;;22.02;38.35;100273.84;8332726;28;20049;-64
2022/03/13 12:10:27;;;;;;;20.80;13.73;;;;;;;21.69;40.10;100262.16;8351555;28;20032;-63
2022/03/13 12:14:50;;;;;;;20.95;14.40;;;;;;;21.84;38.70;100260.00;8347634;28;20041;-64
2022/03/13 12:18:59;;;;;;;21.60;12.98;;;;;;;21.98;38.69;100261.59;8347525;28;20049;-64
2022/03/13 12:23:00;;;;;;;19.90;13.63;;;;;;;22.68;38.58;100253.09;8348835;28;20048;-64
2022/03/13 12:27:03;;;;;;;20.55;13.15;;;;;;;23.14;37.93;100242.44;8330019;28;20036;-64
2022/03/13 12:31:03;;;;;;;18.92;13.23;;;;;;;22.85;38.87;100247.84;8349648;28;20044;-64
2022/03/13 12:35:04;;;;;;;23.75;13.60;;;;;;;22.94;38.13;100239.03;8345779;28;20531;-64
2022/03/13 12:39:11;;;;;;;24.92;14.30;;;;;;;22.66;38.41;100235.91;8345186;28;20132;-64
2022/03/13 12:43:13;;;;;;;19.30;12.75;;;;;;;22.81;38.18;100230.91;8344731;28;20156;-64
2022/03/13 12:47:26;;;;;;;19.85;13.02;;;;;;;22.71;38.80;100230.59;8344231;28;20764;-64
2022/03/13 12:51:34;;;;;;;19.35;12.70;;;;;;;21.22;40.04;100226.75;8342588;28;20512;-64
2022/03/13 12:55:35;;;;;;;21.98;12.77;;;;;;;21.65;40.65;100227.88;8347426;28;20045;-64
2022/03/13 12:59:40;;;;;;;19.33;12.98;;;;;;;21.47;40.43;100230.47;8346345;28;20041;-64
2022/03/13 13:03:49;;;;;;;17.13;12.48;;;;;;;20.38;42.23;100217.56;8345136;28;20045;-65
2022/03/13 13:07:51;;;;;;;20.40;13.13;;;;;;;19.66;43.76;100234.91;8344896;28;20052;-64
2022/03/13 13:11:51;;;;;;;20.17;12.88;;;;;;;18.69;44.37;100228.66;8344986;28;20055;-64
2022/03/13 13:15:55;;;;;;;16.50;10.63;;;;;;;18.78;44.85;100227.47;8346032;28;20485;-64
2022/03/13 13:19:58;;;;;;;16.30;10.02;;;;;;;18.89;45.82;100229.66;8342771;28;20049;-64
2022/03/13 13:23:59;;;;;;;17.70;11.23;;;;;;;19.57;44.95;100217.78;8342856;28;20040;-64
2022/03/13 13:28:02;;;;;;;15.10;10.23;;;;;;;19.94;44.96;100219.19;8342030;28;20033;-64
2022/03/13 13:32:26;;;;;;;11.75;7.10;;;;;;;19.46;45.17;100223.88;8341100;28;20191;-64
2022/03/13 13:36:26;;;;;;;9.75;7.40;;;;;;;19.40;46.03;100225.53;8341679;28;20049;-64
2022/03/13 13:40:33;;;;;;;17.77;8.93;;;;;;;19.32;45.69;100220.25;8343230;28;20049;-64
2022/03/13 13:44:33;;;;;;;12.45;8.82;;;;;;;19.23;46.77;100215.09;8338869;28;20128;-64
2022/03/13 13:48:50;;;;;;;13.93;8.77;;;;;;;19.49;46.17;100220.75;8342399;28;20040;-64
2022/03/13 13:53:08;;;;;;;12.98;7.95;;;;;;;19.32;45.53;100214.75;8342151;28;20394;-64
2022/03/13 13:57:20;;;;;;;11.15;7.60;;;;;;;19.54;45.54;100222.88;8342123;28;20041;-64
2022/03/13 14:01:33;;;;;;;12.30;7.97;;;;;;;19.57;45.39;100209.56;8342167;28;20053;-64
2022/03/13 14:05:33;;;;;;;11.77;8.10;;;;;;;19.38;45.09;100202.97;8334242;28;20464;-64
2022/03/13 14:09:35;;;;;;;13.00;8.35;;;;;;;19.21;45.82;100195.25;8342537;28;20041;-64
2022/03/13 14:13:36;;;;;;;22.20;9.45;;;;;;;19.06;46.72;100208.28;8340966;28;20122;-64
2022/03/13 14:17:36;;;;;;;14.55;8.52;;;;;;;18.72;46.95;100206.34;8318694;28;20041;-63
2022/03/13 14:21:38;;;;;;;13.57;9.30;;;;;;;18.54;47.20;100202.44;8346423;28;20041;-64
2022/03/13 14:25:41;;;;;;;20.65;11.13;;;;;;;18.22;46.77;100203.84;8337422;28;20374;-63
2022/03/13 14:29:42;;;;;;;19.17;11.40;;;;;;;18.28;46.66;100208.53;8314613;28;20488;-63
2022/03/13 14:33:42;;;;;;;21.10;11.10;;;;;;;18.23;45.80;100216.47;8325566;28;20037;-64
2022/03/13 14:37:43;;;;;;;19.98;10.23;;;;;;;18.04;46.31;100217.13;8328147;28;20213;-65
2022/03/13 14:41:43;;;;;;;16.88;10.25;;;;;;;18.14;47.51;100216.81;8316599;28;20052;-64
2022/03/13 14:45:44;;;;;;;18.58;10.85;;;;;;;18.26;47.18;100218.81;8344453;28;20049;-64
2022/03/13 14:49:44;;;;;;;17.25;10.75;;;;;;;18.38;46.70;100225.47;8328593;28;20037;-64
2022/03/13 14:53:45;;;;;;;17.15;10.13;;;;;;;18.04;46.63;100222.59;8347707;28;20098;-64
2022/03/13 14:57:45;;;;;;;15.57;10.88;;;;;;;18.04;46.25;100216.28;8347208;28;20106;-64
2022/03/13 15:01:46;;;;;;;15.98;10.40;;;;;;;18.20;46.30;100232.44;8347924;28;20037;-65
2022/03/13 15:05:46;;;;;;;17.50;11.95;;;;;;;17.87;46.97;100215.69;8350313;28;20356;-65
2022/03/13 15:09:47;;;;;;;18.38;12.00;;;;;;;18.02;46.61;100230.16;8349980;28;20110;-64
2022/03/13 15:13:47;;;;;;;22.47;12.37;;;;;;;17.82;46.71;100234.59;8333660;28;20037;-64
2022/03/13 15:17:49;;;;;;;19.30;10.48;;;;;;;17.76;46.97;100229.91;8334272;28;20283;-65
2022/03/13 15:21:49;;;;;;;18.63;12.02;;;;;;;17.73;47.44;100223.94;8353223;28;20040;-65
2022/03/13 15:25:50;;;;;;;18.83;10.65;;;;;;;17.63;47.91;100223.44;8319532;28;20064;-64
2022/03/13 15:29:50;;;;;;;17.58;11.07;;;;;;;17.88;47.66;100217.41;8351262;28;20122;-65
2022/03/13 15:33:52;;;;;;;17.33;9.83;;;;;;;17.96;47.16;100225.47;8331974;28;20051;-64
2022/03/13 15:37:53;;;;;;;19.63;11.98;;;;;;;17.97;47.03;100224.44;8352440;28;20818;-64
2022/03/13 15:41:54;;;;;;;17.85;11.15;;;;;;;17.99;46.27;100225.06;8346474;28;20786;-65
2022/03/13 15:45:54;;;;;;;18.85;11.70;;;;;;;17.81;46.87;100227.41;8350501;28;20127;-65
2022/03/13 15:49:55;;;;;;;15.90;10.00;;;;;;;17.73;46.74;100237.63;8349244;28;20041;-65
2022/03/13 15:53:56;;;;;;;17.73;11.35;;;;;;;17.65;46.87;100224.91;8330991;28;20430;-65
2022/03/13 15:57:57;;;;;;;65.78;31.10;;;;;;;17.45;47.61;100243.00;8330040;28;20048;-65
2022/03/13 16:01:58;;;;;;;20.33;11.10;;;;;;;17.51;47.84;100243.06;8314397;28;20158;-64
2022/03/13 16:05:58;;;;;;;15.65;10.20;;;;;;;17.81;46.75;100257.47;8344242;28;20275;-65
2022/03/13 16:09:59;;;;;;;13.45;9.55;;;;;;;17.79;47.07;100250.53;8343465;28;20037;-65
2022/03/13 16:13:59;;;;;;;12.45;8.57;;;;;;;17.59;47.54;100255.75;8344805;28;20056;-65
2022/03/13 16:18:00;;;;;;;14.70;9.15;;;;;;;17.59;47.94;100266.69;8343884;28;20044;-64
2022/03/13 16:22:01;;;;;;;14.88;9.20;;;;;;;17.43;48.59;100261.44;8344131;28;20041;-65
2022/03/13 16:26:02;;;;;;;13.25;8.68;;;;;;;17.24;49.97;100267.47;8322985;28;20547;-65
2022/03/13 16:30:05;;;;;;;14.30;6.25;;;;;;;17.21;50.43;100262.38;8340969;28;20484;-65
2022/03/13 16:34:05;;;;;;;5.53;4.43;;;;;;;17.07;51.59;100255.03;8340566;28;20071;-64
2022/03/13 16:38:05;;;;;;;5.97;3.22;;;;;;;17.01;51.97;100258.50;8356153;28;20048;-64
2022/03/13 16:42:07;;;;;;;1.98;1.40;;;;;;;16.95;52.38;100253.81;8355162;28;20041;-64
2022/03/13 16:46:08;;;;;;;4.25;1.30;;;;;;;17.08;51.70;100256.75;8343471;28;20552;-64
2022/03/13 16:50:10;;;;;;;2.65;1.27;;;;;;;17.02;52.12;100257.50;8326350;28;20412;-64
2022/03/13 16:54:10;;;;;;;3.15;1.30;;;;;;;16.86;52.72;100274.03;8345233;28;20036;-64
2022/03/13 16:58:12;;;;;;;1.95;1.30;;;;;;;16.57;54.26;100274.00;8345265;28;20041;-64
2022/03/13 17:02:13;;;;;;;2.65;2.05;;;;;;;16.22;55.65;100277.38;8345532;28;20412;-64
2022/03/13 17:06:14;;;;;;;2.40;1.58;;;;;;;16.34;54.56;100284.06;8344781;28;20392;-64
2022/03/13 17:10:14;;;;;;;2.15;1.42;;;;;;;16.48;54.15;100283.31;8343026;28;20082;-64
2022/03/13 17:14:15;;;;;;;2.85;1.85;;;;;;;16.48;54.19;100275.13;8343497;28;20047;-64
2022/03/13 17:18:19;;;;;;;2.72;1.70;;;;;;;16.39;54.47;100287.09;8343488;28;20102;-64
2022/03/13 17:22:20;;;;;;;2.85;2.08;;;;;;;16.31;54.71;100307.09;8342464;28;20322;-64
2022/03/13 17:26:20;;;;;;;5.13;2.38;;;;;;;16.27;54.78;100310.38;8341327;28;20041;-64
2022/03/13 17:30:21;;;;;;;2.85;2.50;;;;;;;16.12;55.36;100320.38;8343457;28;20052;-64
2022/03/13 17:34:23;;;;;;;4.13;2.53;;;;;;;16.13;55.39;100324.81;8345101;28;20052;-64
2022/03/13 17:38:24;;;;;;;4.35;2.70;;;;;;;16.04;55.89;100331.34;8341772;28;20044;-64
2022/03/13 17:42:26;;;;;;;6.57;3.47;;;;;;;15.93;56.46;100340.78;8343297;28;20117;-63
2022/03/13 17:46:26;;;;;;;5.85;4.30;;;;;;;15.79;57.10;100343.44;8347125;28;20039;-64
2022/03/13 17:50:27;;;;;;;5.53;3.70;;;;;;;15.71;57.61;100353.31;8327911;28;20045;-64
2022/03/13 17:54:27;;;;;;;4.00;2.60;;;;;;;15.76;58.18;100362.88;8344449;28;20051;-64
2022/03/13 17:58:28;;;;;;;4.07;2.40;;;;;;;15.76;58.16;100366.44;8347881;28;20048;-64
2022/03/13 18:02:28;;;;;;;4.03;2.55;;;;;;;15.77;58.32;100383.63;8339576;28;20051;-64
2022/03/13 18:06:29;;;;;;;10.45;3.03;;;;;;;15.70;58.63;100387.06;8333915;28;20321;-64
2022/03/13 18:10:29;;;;;;;4.80;2.75;;;;;;;15.59;58.92;100392.91;8341769;28;20037;-64
2022/03/13 18:14:30;;;;;;;3.83;3.00;;;;;;;15.43;59.69;100398.41;8342170;28;20331;-64
2022/03/13 18:18:30;;;;;;;3.65;2.92;;;;;;;15.33;60.49;100403.16;8341518;28;20055;-64
2022/03/13 18:22:31;;;;;;;5.85;3.67;;;;;;;15.20;61.07;100415.63;8341721;28;20035;-64
2022/03/13 18:26:31;;;;;;;5.53;2.97;;;;;;;15.11;61.50;100416.66;8332588;28;20048;-64
2022/03/13 18:30:32;;;;;;;9.32;3.42;;;;;;;15.02;62.12;100423.97;8340397;28;20049;-64